Terminal Aerodrome Forecast
Issued by NWS

Home | Current Version | Previous Version | Text Only | Print | Product List | Glossary On
Versions: 1 2 3 4 5 6 7 8 9 10 11 12
000
FTUS45 KFGZ 310534
TAFPRC
TAF
KPRC 310534Z 3106/0106 VRB05KT P6SM FEW110
     FM311900 26010KT P6SM VCSH SCT110
      TEMPO 3119/3123 VRB10G20KT P6SM BKN110
     FM010200 25005KT P6SM SCT110=

USA.gov is the U.S. government's official web portal to all federal, state and local government web resources and services.